sensor_id;sensor_type;location;lat;lon;timestamp;P1;durP1;ratioP1;P2;durP2;ratioP2
77324;SDS011;66387;53.440;10.390;2023-02-12T00:02:14;22.40;;;11.35;;
77324;SDS011;66387;53.440;10.390;2023-02-12T00:04:39;23.67;;;11.95;;
77324;SDS011;66387;53.440;10.390;2023-02-12T00:07:04;23.43;;;8.97;;
77324;SDS011;66387;53.440;10.390;2023-02-12T00:09:30;22.37;;;10.03;;
77324;SDS011;66387;53.440;10.390;2023-02-12T00:11:55;22.27;;;9.00;;
77324;SDS011;66387;53.440;10.390;2023-02-12T00:14:20;12.47;;;7.30;;
77324;SDS011;66387;53.440;10.390;2023-02-12T00:16:45;15.03;;;7.80;;
77324;SDS011;66387;53.440;10.390;2023-02-12T00:19:11;19.17;;;8.30;;
77324;SDS011;66387;53.440;10.390;2023-02-12T00:21:36;21.00;;;9.13;;
77324;SDS011;66387;53.440;10.390;2023-02-12T00:24:01;15.67;;;7.87;;
77324;SDS011;66387;53.440;10.390;2023-02-12T00:26:27;13.25;;;7.10;;
77324;SDS011;66387;53.440;10.390;2023-02-12T00:28:52;13.27;;;6.90;;
77324;SDS011;66387;53.440;10.390;2023-02-12T00:31:22;13.25;;;6.85;;
77324;SDS011;66387;53.440;10.390;2023-02-12T00:33:49;12.77;;;6.60;;
77324;SDS011;66387;53.440;10.390;2023-02-12T00:36:15;13.07;;;6.43;;
77324;SDS011;66387;53.440;10.390;2023-02-12T00:38:46;8.55;;;5.55;;
77324;SDS011;66387;53.440;10.390;2023-02-12T00:41:12;15.40;;;6.85;;
77324;SDS011;66387;53.440;10.390;2023-02-12T00:43:37;11.43;;;6.55;;
77324;SDS011;66387;53.440;10.390;2023-02-12T00:46:03;14.18;;;6.30;;
77324;SDS011;66387;53.440;10.390;2023-02-12T00:48:29;10.75;;;5.18;;
77324;SDS011;66387;53.440;10.390;2023-02-12T00:50:55;12.85;;;7.25;;
77324;SDS011;66387;53.440;10.390;2023-02-12T00:53:20;10.32;;;7.30;;
77324;SDS011;66387;53.440;10.390;2023-02-12T00:55:45;12.93;;;6.23;;
77324;SDS011;66387;53.440;10.390;2023-02-12T00:58:11;9.63;;;6.13;;
77324;SDS011;66387;53.440;10.390;2023-02-12T01:00:36;13.95;;;6.28;;
77324;SDS011;66387;53.440;10.390;2023-02-12T01:03:02;9.30;;;5.65;;
77324;SDS011;66387;53.440;10.390;2023-02-12T01:05:28;6.97;;;4.53;;
77324;SDS011;66387;53.440;10.390;2023-02-12T01:07:54;9.50;;;4.30;;
77324;SDS011;66387;53.440;10.390;2023-02-12T01:10:20;9.25;;;5.47;;
77324;SDS011;66387;53.440;10.390;2023-02-12T01:12:46;9.30;;;4.97;;
77324;SDS011;66387;53.440;10.390;2023-02-12T01:15:12;7.70;;;4.85;;
77324;SDS011;66387;53.440;10.390;2023-02-12T01:17:38;8.68;;;4.47;;
77324;SDS011;66387;53.440;10.390;2023-02-12T01:20:04;9.37;;;4.43;;
77324;SDS011;66387;53.440;10.390;2023-02-12T01:22:32;9.98;;;5.15;;
77324;SDS011;66387;53.440;10.390;2023-02-12T01:24:59;9.32;;;5.25;;
77324;SDS011;66387;53.440;10.390;2023-02-12T01:27:24;9.98;;;5.43;;
77324;SDS011;66387;53.440;10.390;2023-02-12T01:29:49;10.33;;;5.40;;
77324;SDS011;66387;53.440;10.390;2023-02-12T01:32:15;8.70;;;4.93;;
77324;SDS011;66387;53.440;10.390;2023-02-12T01:34:40;11.07;;;6.57;;
77324;SDS011;66387;53.440;10.390;2023-02-12T01:37:05;9.37;;;5.53;;
77324;SDS011;66387;53.440;10.390;2023-02-12T01:39:30;15.03;;;6.97;;
77324;SDS011;66387;53.440;10.390;2023-02-12T01:41:56;11.97;;;7.03;;
77324;SDS011;66387;53.440;10.390;2023-02-12T01:44:22;10.80;;;6.00;;
77324;SDS011;66387;53.440;10.390;2023-02-12T01:47:02;11.25;;;7.25;;
77324;SDS011;66387;53.440;10.390;2023-02-12T01:49:36;16.67;;;8.35;;
77324;SDS011;66387;53.440;10.390;2023-02-12T01:52:06;14.95;;;7.35;;
77324;SDS011;66387;53.440;10.390;2023-02-12T01:54:37;14.90;;;7.40;;
77324;SDS011;66387;53.440;10.390;2023-02-12T01:57:04;12.55;;;6.90;;
77324;SDS011;66387;53.440;10.390;2023-02-12T01:59:30;16.60;;;8.23;;
77324;SDS011;66387;53.440;10.390;2023-02-12T02:01:57;14.05;;;8.20;;
77324;SDS011;66387;53.440;10.390;2023-02-12T02:04:23;15.45;;;8.02;;
77324;SDS011;66387;53.440;10.390;2023-02-12T02:06:55;16.77;;;7.93;;
77324;SDS011;66387;53.440;10.390;2023-02-12T02:09:25;12.70;;;7.93;;
77324;SDS011;66387;53.440;10.390;2023-02-12T02:11:52;14.15;;;8.43;;
77324;SDS011;66387;53.440;10.390;2023-02-12T02:14:36;15.02;;;7.97;;
77324;SDS011;66387;53.440;10.390;2023-02-12T02:17:05;19.00;;;8.23;;
77324;SDS011;66387;53.440;10.390;2023-02-12T02:22:23;11.65;;;7.00;;
77324;SDS011;66387;53.440;10.390;2023-02-12T02:25:06;10.07;;;6.75;;
77324;SDS011;66387;53.440;10.390;2023-02-12T02:27:41;13.13;;;6.40;;
77324;SDS011;66387;53.440;10.390;2023-02-12T02:32:54;12.97;;;7.07;;
77324;SDS011;66387;53.440;10.390;2023-02-12T02:43:09;9.80;;;4.45;;
77324;SDS011;66387;53.440;10.390;2023-02-12T02:45:46;12.18;;;6.22;;
77324;SDS011;66387;53.440;10.390;2023-02-12T02:48:16;11.77;;;5.40;;
77324;SDS011;66387;53.440;10.390;2023-02-12T02:50:49;10.57;;;4.85;;
77324;SDS011;66387;53.440;10.390;2023-02-12T02:53:21;10.63;;;5.47;;
77324;SDS011;66387;53.440;10.390;2023-02-12T02:55:54;12.30;;;5.88;;
77324;SDS011;66387;53.440;10.390;2023-02-12T02:58:24;9.95;;;5.43;;
77324;SDS011;66387;53.440;10.390;2023-02-12T03:01:19;7.35;;;5.18;;
77324;SDS011;66387;53.440;10.390;2023-02-12T03:06:22;14.57;;;6.72;;
77324;SDS011;66387;53.440;10.390;2023-02-12T03:08:57;12.27;;;6.80;;
77324;SDS011;66387;53.440;10.390;2023-02-12T03:11:27;8.90;;;4.85;;
77324;SDS011;66387;53.440;10.390;2023-02-12T03:14:00;10.00;;;6.53;;
77324;SDS011;66387;53.440;10.390;2023-02-12T03:16:31;9.10;;;5.88;;
77324;SDS011;66387;53.440;10.390;2023-02-12T03:19:03;11.70;;;5.63;;
77324;SDS011;66387;53.440;10.390;2023-02-12T03:24:43;10.20;;;5.53;;
77324;SDS011;66387;53.440;10.390;2023-02-12T03:27:16;8.93;;;4.78;;
77324;SDS011;66387;53.440;10.390;2023-02-12T03:30:12;11.75;;;5.60;;
77324;SDS011;66387;53.440;10.390;2023-02-12T03:32:45;10.75;;;5.45;;
77324;SDS011;66387;53.440;10.390;2023-02-12T03:35:19;8.45;;;4.95;;
77324;SDS011;66387;53.440;10.390;2023-02-12T03:37:54;9.00;;;5.18;;
77324;SDS011;66387;53.440;10.390;2023-02-12T03:40:39;10.80;;;4.90;;
77324;SDS011;66387;53.440;10.390;2023-02-12T03:43:09;8.63;;;4.70;;
77324;SDS011;66387;53.440;10.390;2023-02-12T03:45:53;7.20;;;4.05;;
77324;SDS011;66387;53.440;10.390;2023-02-12T03:48:26;9.70;;;4.47;;
77324;SDS011;66387;53.440;10.390;2023-02-12T03:53:28;9.30;;;4.18;;
77324;SDS011;66387;53.440;10.390;2023-02-12T03:55:55;9.63;;;4.85;;
77324;SDS011;66387;53.440;10.390;2023-02-12T03:58:28;9.15;;;4.22;;
77324;SDS011;66387;53.440;10.390;2023-02-12T04:00:56;9.63;;;5.30;;
77324;SDS011;66387;53.440;10.390;2023-02-12T04:03:22;9.60;;;5.00;;
77324;SDS011;66387;53.440;10.390;2023-02-12T04:05:48;12.43;;;6.07;;
77324;SDS011;66387;53.440;10.390;2023-02-12T04:08:14;11.05;;;5.47;;
77324;SDS011;66387;53.440;10.390;2023-02-12T04:10:50;9.60;;;5.30;;
77324;SDS011;66387;53.440;10.390;2023-02-12T04:13:25;11.77;;;6.57;;
77324;SDS011;66387;53.440;10.390;2023-02-12T04:18:39;9.65;;;4.68;;
77324;SDS011;66387;53.440;10.390;2023-02-12T04:26:33;11.38;;;7.50;;
77324;SDS011;66387;53.440;10.390;2023-02-12T04:29:07;14.70;;;7.25;;
77324;SDS011;66387;53.440;10.390;2023-02-12T04:37:31;16.88;;;8.15;;
77324;SDS011;66387;53.440;10.390;2023-02-12T04:40:09;24.67;;;9.52;;
77324;SDS011;66387;53.440;10.390;2023-02-12T04:42:41;19.27;;;9.30;;
77324;SDS011;66387;53.440;10.390;2023-02-12T04:45:09;23.98;;;10.27;;
77324;SDS011;66387;53.440;10.390;2023-02-12T04:47:35;22.63;;;9.95;;
77324;SDS011;66387;53.440;10.390;2023-02-12T04:50:01;21.40;;;9.60;;
77324;SDS011;66387;53.440;10.390;2023-02-12T04:52:26;24.40;;;10.53;;
77324;SDS011;66387;53.440;10.390;2023-02-12T04:54:51;21.80;;;9.30;;
77324;SDS011;66387;53.440;10.390;2023-02-12T04:57:16;20.17;;;9.70;;
77324;SDS011;66387;53.440;10.390;2023-02-12T04:59:41;18.30;;;8.93;;
77324;SDS011;66387;53.440;10.390;2023-02-12T05:02:07;19.50;;;9.33;;
77324;SDS011;66387;53.440;10.390;2023-02-12T05:04:32;23.50;;;9.50;;
77324;SDS011;66387;53.440;10.390;2023-02-12T05:06:57;21.10;;;10.30;;
77324;SDS011;66387;53.440;10.390;2023-02-12T05:09:22;24.53;;;9.30;;
77324;SDS011;66387;53.440;10.390;2023-02-12T05:11:48;23.87;;;11.63;;
77324;SDS011;66387;53.440;10.390;2023-02-12T05:14:13;19.57;;;9.33;;
77324;SDS011;66387;53.440;10.390;2023-02-12T05:16:38;20.23;;;9.57;;
77324;SDS011;66387;53.440;10.390;2023-02-12T05:19:04;22.65;;;11.63;;
77324;SDS011;66387;53.440;10.390;2023-02-12T05:21:29;26.83;;;11.27;;
77324;SDS011;66387;53.440;10.390;2023-02-12T05:23:54;18.63;;;9.73;;
77324;SDS011;66387;53.440;10.390;2023-02-12T05:26:20;18.00;;;9.13;;
77324;SDS011;66387;53.440;10.390;2023-02-12T05:28:46;16.70;;;9.75;;
77324;SDS011;66387;53.440;10.390;2023-02-12T05:31:13;24.17;;;10.60;;
77324;SDS011;66387;53.440;10.390;2023-02-12T05:33:41;20.88;;;10.52;;
77324;SDS011;66387;53.440;10.390;2023-02-12T05:36:11;21.60;;;10.23;;
77324;SDS011;66387;53.440;10.390;2023-02-12T05:41:21;17.07;;;8.47;;
77324;SDS011;66387;53.440;10.390;2023-02-12T05:43:49;20.52;;;9.88;;
77324;SDS011;66387;53.440;10.390;2023-02-12T05:46:15;18.02;;;9.90;;
77324;SDS011;66387;53.440;10.390;2023-02-12T05:48:41;17.67;;;9.68;;
77324;SDS011;66387;53.440;10.390;2023-02-12T05:51:08;23.67;;;10.40;;
77324;SDS011;66387;53.440;10.390;2023-02-12T05:53:39;21.42;;;10.05;;
77324;SDS011;66387;53.440;10.390;2023-02-12T05:56:12;20.38;;;10.38;;
77324;SDS011;66387;53.440;10.390;2023-02-12T05:58:40;26.88;;;9.98;;
77324;SDS011;66387;53.440;10.390;2023-02-12T06:01:08;24.58;;;12.65;;
77324;SDS011;66387;53.440;10.390;2023-02-12T06:03:44;27.40;;;10.60;;
77324;SDS011;66387;53.440;10.390;2023-02-12T06:06:09;36.87;;;10.23;;
77324;SDS011;66387;53.440;10.390;2023-02-12T06:08:35;40.92;;;10.10;;
77324;SDS011;66387;53.440;10.390;2023-02-12T06:11:02;54.55;;;11.23;;
77324;SDS011;66387;53.440;10.390;2023-02-12T06:13:29;26.95;;;10.23;;
77324;SDS011;66387;53.440;10.390;2023-02-12T06:15:56;38.45;;;11.43;;
77324;SDS011;66387;53.440;10.390;2023-02-12T06:18:21;31.20;;;9.55;;
77324;SDS011;66387;53.440;10.390;2023-02-12T06:20:47;28.03;;;10.70;;
77324;SDS011;66387;53.440;10.390;2023-02-12T06:23:12;31.20;;;10.65;;
77324;SDS011;66387;53.440;10.390;2023-02-12T06:25:37;42.17;;;11.80;;
77324;SDS011;66387;53.440;10.390;2023-02-12T06:28:03;52.20;;;12.27;;
77324;SDS011;66387;53.440;10.390;2023-02-12T06:30:28;48.60;;;11.48;;
77324;SDS011;66387;53.440;10.390;2023-02-12T06:32:55;107.50;;;15.95;;
77324;SDS011;66387;53.440;10.390;2023-02-12T06:35:21;55.53;;;12.20;;
77324;SDS011;66387;53.440;10.390;2023-02-12T06:37:46;40.10;;;10.20;;
77324;SDS011;66387;53.440;10.390;2023-02-12T06:40:11;71.00;;;11.40;;
77324;SDS011;66387;53.440;10.390;2023-02-12T06:42:37;45.10;;;12.13;;
77324;SDS011;66387;53.440;10.390;2023-02-12T06:45:02;23.63;;;8.63;;
77324;SDS011;66387;53.440;10.390;2023-02-12T06:47:28;36.33;;;10.55;;
77324;SDS011;66387;53.440;10.390;2023-02-12T06:49:53;93.30;;;16.10;;
77324;SDS011;66387;53.440;10.390;2023-02-12T06:52:18;57.90;;;16.10;;
77324;SDS011;66387;53.440;10.390;2023-02-12T06:54:45;58.58;;;13.20;;
77324;SDS011;66387;53.440;10.390;2023-02-12T06:57:10;33.03;;;10.73;;
77324;SDS011;66387;53.440;10.390;2023-02-12T06:59:35;35.13;;;11.23;;
77324;SDS011;66387;53.440;10.390;2023-02-12T07:02:01;43.00;;;13.13;;
77324;SDS011;66387;53.440;10.390;2023-02-12T07:04:26;29.37;;;8.67;;
77324;SDS011;66387;53.440;10.390;2023-02-12T07:06:51;52.70;;;9.57;;
77324;SDS011;66387;53.440;10.390;2023-02-12T07:09:16;43.85;;;9.63;;
77324;SDS011;66387;53.440;10.390;2023-02-12T07:11:42;41.37;;;11.43;;
77324;SDS011;66387;53.440;10.390;2023-02-12T07:14:11;42.53;;;10.10;;
77324;SDS011;66387;53.440;10.390;2023-02-12T07:16:39;33.47;;;8.18;;
77324;SDS011;66387;53.440;10.390;2023-02-12T07:19:04;40.13;;;9.73;;
77324;SDS011;66387;53.440;10.390;2023-02-12T07:21:30;37.65;;;6.57;;
77324;SDS011;66387;53.440;10.390;2023-02-12T07:23:56;48.35;;;7.80;;
77324;SDS011;66387;53.440;10.390;2023-02-12T07:26:21;44.08;;;7.32;;
77324;SDS011;66387;53.440;10.390;2023-02-12T07:28:47;33.28;;;6.75;;
77324;SDS011;66387;53.440;10.390;2023-02-12T07:31:15;46.85;;;8.05;;
77324;SDS011;66387;53.440;10.390;2023-02-12T07:33:42;31.58;;;7.90;;
77324;SDS011;66387;53.440;10.390;2023-02-12T07:36:11;53.75;;;9.25;;
77324;SDS011;66387;53.440;10.390;2023-02-12T07:38:39;50.80;;;9.68;;
77324;SDS011;66387;53.440;10.390;2023-02-12T07:41:27;39.25;;;8.68;;
77324;SDS011;66387;53.440;10.390;2023-02-12T07:43:52;42.17;;;9.90;;
77324;SDS011;66387;53.440;10.390;2023-02-12T07:46:24;46.33;;;8.90;;
77324;SDS011;66387;53.440;10.390;2023-02-12T07:48:54;42.20;;;7.38;;
77324;SDS011;66387;53.440;10.390;2023-02-12T07:51:19;32.72;;;6.70;;
77324;SDS011;66387;53.440;10.390;2023-02-12T07:53:45;46.58;;;9.15;;
77324;SDS011;66387;53.440;10.390;2023-02-12T07:56:15;45.38;;;9.57;;
77324;SDS011;66387;53.440;10.390;2023-02-12T07:58:43;30.55;;;6.32;;
77324;SDS011;66387;53.440;10.390;2023-02-12T08:01:10;27.80;;;5.60;;
77324;SDS011;66387;53.440;10.390;2023-02-12T08:03:57;20.58;;;6.03;;
77324;SDS011;66387;53.440;10.390;2023-02-12T08:06:25;24.10;;;6.28;;
77324;SDS011;66387;53.440;10.390;2023-02-12T08:11:18;17.15;;;5.53;;
77324;SDS011;66387;53.440;10.390;2023-02-12T08:13:44;29.80;;;8.05;;
77324;SDS011;66387;53.440;10.390;2023-02-12T08:16:11;45.65;;;7.78;;
77324;SDS011;66387;53.440;10.390;2023-02-12T08:18:37;66.60;;;10.38;;
77324;SDS011;66387;53.440;10.390;2023-02-12T08:21:03;42.80;;;10.07;;
77324;SDS011;66387;53.440;10.390;2023-02-12T08:23:33;22.90;;;7.40;;
77324;SDS011;66387;53.440;10.390;2023-02-12T08:26:09;25.15;;;8.45;;
77324;SDS011;66387;53.440;10.390;2023-02-12T08:28:41;20.15;;;6.70;;
77324;SDS011;66387;53.440;10.390;2023-02-12T08:31:10;21.80;;;7.38;;
77324;SDS011;66387;53.440;10.390;2023-02-12T08:33:37;45.55;;;9.95;;
77324;SDS011;66387;53.440;10.390;2023-02-12T08:36:06;32.73;;;9.70;;
77324;SDS011;66387;53.440;10.390;2023-02-12T08:38:34;34.47;;;8.18;;
77324;SDS011;66387;53.440;10.390;2023-02-12T08:41:01;44.95;;;8.90;;
77324;SDS011;66387;53.440;10.390;2023-02-12T08:43:30;48.47;;;10.38;;
77324;SDS011;66387;53.440;10.390;2023-02-12T08:46:12;28.13;;;9.25;;
77324;SDS011;66387;53.440;10.390;2023-02-12T08:48:43;44.70;;;9.07;;
77324;SDS011;66387;53.440;10.390;2023-02-12T08:51:19;29.85;;;8.98;;
77324;SDS011;66387;53.440;10.390;2023-02-12T08:53:47;19.27;;;7.35;;
77324;SDS011;66387;53.440;10.390;2023-02-12T08:56:16;28.23;;;7.90;;
77324;SDS011;66387;53.440;10.390;2023-02-12T08:58:42;23.05;;;7.65;;
77324;SDS011;66387;53.440;10.390;2023-02-12T09:01:11;30.58;;;8.52;;
77324;SDS011;66387;53.440;10.390;2023-02-12T09:06:03;35.60;;;11.07;;
77324;SDS011;66387;53.440;10.390;2023-02-12T09:08:30;37.33;;;11.05;;
77324;SDS011;66387;53.440;10.390;2023-02-12T09:10:55;30.20;;;10.68;;
77324;SDS011;66387;53.440;10.390;2023-02-12T09:13:21;33.13;;;10.93;;
77324;SDS011;66387;53.440;10.390;2023-02-12T09:15:46;28.63;;;10.00;;
77324;SDS011;66387;53.440;10.390;2023-02-12T09:18:12;22.65;;;9.70;;
77324;SDS011;66387;53.440;10.390;2023-02-12T09:20:40;26.77;;;11.27;;
77324;SDS011;66387;53.440;10.390;2023-02-12T09:23:12;24.50;;;8.85;;
77324;SDS011;66387;53.440;10.390;2023-02-12T09:25:39;25.75;;;10.73;;
77324;SDS011;66387;53.440;10.390;2023-02-12T09:28:08;23.92;;;10.65;;
77324;SDS011;66387;53.440;10.390;2023-02-12T09:30:37;19.83;;;8.68;;
77324;SDS011;66387;53.440;10.390;2023-02-12T09:33:03;19.95;;;9.07;;
77324;SDS011;66387;53.440;10.390;2023-02-12T09:35:29;17.52;;;8.23;;
77324;SDS011;66387;53.440;10.390;2023-02-12T09:37:55;25.75;;;9.65;;
77324;SDS011;66387;53.440;10.390;2023-02-12T09:43:14;23.23;;;10.43;;
77324;SDS011;66387;53.440;10.390;2023-02-12T09:45:57;19.15;;;8.57;;
77324;SDS011;66387;53.440;10.390;2023-02-12T09:51:04;17.42;;;8.60;;
77324;SDS011;66387;53.440;10.390;2023-02-12T09:53:34;18.13;;;9.05;;
77324;SDS011;66387;53.440;10.390;2023-02-12T09:56:07;17.17;;;8.98;;
77324;SDS011;66387;53.440;10.390;2023-02-12T09:58:47;16.23;;;9.05;;
77324;SDS011;66387;53.440;10.390;2023-02-12T10:01:17;18.42;;;8.85;;
77324;SDS011;66387;53.440;10.390;2023-02-12T10:03:44;19.55;;;8.55;;
77324;SDS011;66387;53.440;10.390;2023-02-12T10:06:35;21.02;;;9.60;;
77324;SDS011;66387;53.440;10.390;2023-02-12T10:12:00;17.10;;;9.18;;
77324;SDS011;66387;53.440;10.390;2023-02-12T10:23:00;20.67;;;9.77;;
77324;SDS011;66387;53.440;10.390;2023-02-12T10:25:48;19.25;;;9.90;;
77324;SDS011;66387;53.440;10.390;2023-02-12T10:28:23;17.00;;;8.98;;
77324;SDS011;66387;53.440;10.390;2023-02-12T10:30:55;17.48;;;8.95;;
77324;SDS011;66387;53.440;10.390;2023-02-12T10:33:40;16.77;;;10.55;;
77324;SDS011;66387;53.440;10.390;2023-02-12T10:39:05;17.17;;;8.45;;
77324;SDS011;66387;53.440;10.390;2023-02-12T10:41:42;16.02;;;9.35;;
77324;SDS011;66387;53.440;10.390;2023-02-12T10:44:12;18.08;;;7.97;;
77324;SDS011;66387;53.440;10.390;2023-02-12T10:46:38;15.33;;;9.03;;
77324;SDS011;66387;53.440;10.390;2023-02-12T10:49:03;15.10;;;8.48;;
77324;SDS011;66387;53.440;10.390;2023-02-12T10:57:03;13.65;;;7.20;;
77324;SDS011;66387;53.440;10.390;2023-02-12T10:59:39;14.18;;;7.68;;
77324;SDS011;66387;53.440;10.390;2023-02-12T11:02:19;12.50;;;6.97;;
77324;SDS011;66387;53.440;10.390;2023-02-12T11:04:56;12.10;;;6.65;;
77324;SDS011;66387;53.440;10.390;2023-02-12T11:07:23;13.20;;;7.00;;
77324;SDS011;66387;53.440;10.390;2023-02-12T11:09:51;14.68;;;7.43;;
77324;SDS011;66387;53.440;10.390;2023-02-12T11:14:53;10.33;;;6.13;;
77324;SDS011;66387;53.440;10.390;2023-02-12T11:17:25;12.88;;;5.90;;
77324;SDS011;66387;53.440;10.390;2023-02-12T11:22:49;13.27;;;6.60;;
77324;SDS011;66387;53.440;10.390;2023-02-12T11:25:16;11.52;;;6.07;;
77324;SDS011;66387;53.440;10.390;2023-02-12T11:27:42;10.43;;;5.25;;
77324;SDS011;66387;53.440;10.390;2023-02-12T11:32:44;8.50;;;5.13;;
77324;SDS011;66387;53.440;10.390;2023-02-12T11:37:42;8.38;;;5.05;;
77324;SDS011;66387;53.440;10.390;2023-02-12T11:40:21;8.52;;;4.72;;
77324;SDS011;66387;53.440;10.390;2023-02-12T11:42:52;10.13;;;5.03;;
77324;SDS011;66387;53.440;10.390;2023-02-12T11:45:21;9.02;;;5.53;;
77324;SDS011;66387;53.440;10.390;2023-02-12T11:47:51;9.77;;;5.70;;
77324;SDS011;66387;53.440;10.390;2023-02-12T11:50:21;9.30;;;5.35;;
77324;SDS011;66387;53.440;10.390;2023-02-12T11:52:51;11.02;;;6.15;;
77324;SDS011;66387;53.440;10.390;2023-02-12T11:55:23;11.50;;;6.03;;
77324;SDS011;66387;53.440;10.390;2023-02-12T11:57:52;9.50;;;5.95;;
77324;SDS011;66387;53.440;10.390;2023-02-12T12:00:24;13.25;;;6.57;;
77324;SDS011;66387;53.440;10.390;2023-02-12T12:02:56;32.13;;;12.75;;
77324;SDS011;66387;53.440;10.390;2023-02-12T12:05:30;10.50;;;5.95;;
77324;SDS011;66387;53.440;10.390;2023-02-12T12:08:02;9.70;;;6.50;;
77324;SDS011;66387;53.440;10.390;2023-02-12T12:13:38;10.38;;;5.32;;
77324;SDS011;66387;53.440;10.390;2023-02-12T12:16:10;9.20;;;5.65;;
77324;SDS011;66387;53.440;10.390;2023-02-12T12:19:01;7.18;;;5.47;;
77324;SDS011;66387;53.440;10.390;2023-02-12T12:24:43;14.77;;;7.43;;
77324;SDS011;66387;53.440;10.390;2023-02-12T12:27:19;14.50;;;8.40;;
77324;SDS011;66387;53.440;10.390;2023-02-12T12:30:17;8.43;;;5.75;;
77324;SDS011;66387;53.440;10.390;2023-02-12T12:32:47;6.93;;;5.38;;
77324;SDS011;66387;53.440;10.390;2023-02-12T12:35:15;21.42;;;13.43;;
77324;SDS011;66387;53.440;10.390;2023-02-12T12:37:51;9.23;;;5.55;;
77324;SDS011;66387;53.440;10.390;2023-02-12T12:40:41;8.80;;;5.20;;
77324;SDS011;66387;53.440;10.390;2023-02-12T12:54:53;7.13;;;4.75;;
77324;SDS011;66387;53.440;10.390;2023-02-12T13:16:35;6.75;;;3.55;;
77324;SDS011;66387;53.440;10.390;2023-02-12T13:19:13;9.45;;;5.03;;
77324;SDS011;66387;53.440;10.390;2023-02-12T13:21:48;7.47;;;4.43;;
77324;SDS011;66387;53.440;10.390;2023-02-12T13:24:33;8.43;;;4.78;;
77324;SDS011;66387;53.440;10.390;2023-02-12T13:27:11;7.03;;;4.00;;
77324;SDS011;66387;53.440;10.390;2023-02-12T13:29:44;6.43;;;3.88;;
77324;SDS011;66387;53.440;10.390;2023-02-12T13:34:58;6.60;;;4.47;;
77324;SDS011;66387;53.440;10.390;2023-02-12T13:37:35;5.90;;;4.45;;
77324;SDS011;66387;53.440;10.390;2023-02-12T13:42:53;7.63;;;4.07;;
77324;SDS011;66387;53.440;10.390;2023-02-12T13:48:27;7.22;;;4.18;;
77324;SDS011;66387;53.440;10.390;2023-02-12T13:51:09;8.02;;;4.38;;
77324;SDS011;66387;53.440;10.390;2023-02-12T13:53:50;9.40;;;6.45;;
77324;SDS011;66387;53.440;10.390;2023-02-12T13:58:58;8.63;;;4.97;;
77324;SDS011;66387;53.440;10.390;2023-02-12T14:11:53;8.60;;;4.70;;
77324;SDS011;66387;53.440;10.390;2023-02-12T14:14:27;6.35;;;4.00;;
77324;SDS011;66387;53.440;10.390;2023-02-12T14:17:17;7.70;;;5.15;;
77324;SDS011;66387;53.440;10.390;2023-02-12T14:20:07;13.15;;;8.57;;
77324;SDS011;66387;53.440;10.390;2023-02-12T14:27:47;4.78;;;3.35;;
77324;SDS011;66387;53.440;10.390;2023-02-12T14:30:28;6.65;;;4.95;;
77324;SDS011;66387;53.440;10.390;2023-02-12T14:33:08;6.15;;;4.30;;
77324;SDS011;66387;53.440;10.390;2023-02-12T14:35:36;6.30;;;4.25;;
77324;SDS011;66387;53.440;10.390;2023-02-12T14:40:47;13.07;;;6.47;;
77324;SDS011;66387;53.440;10.390;2023-02-12T14:51:16;4.28;;;2.80;;
77324;SDS011;66387;53.440;10.390;2023-02-12T14:53:46;5.53;;;4.15;;
77324;SDS011;66387;53.440;10.390;2023-02-12T14:56:13;5.07;;;4.43;;
77324;SDS011;66387;53.440;10.390;2023-02-12T14:58:44;5.70;;;4.18;;
77324;SDS011;66387;53.440;10.390;2023-02-12T15:01:10;6.63;;;4.63;;
77324;SDS011;66387;53.440;10.390;2023-02-12T15:06:17;5.25;;;3.22;;
77324;SDS011;66387;53.440;10.390;2023-02-12T15:08:53;6.07;;;3.88;;
77324;SDS011;66387;53.440;10.390;2023-02-12T15:14:17;5.45;;;3.83;;
77324;SDS011;66387;53.440;10.390;2023-02-12T15:16:44;5.32;;;4.30;;
77324;SDS011;66387;53.440;10.390;2023-02-12T15:19:29;4.60;;;3.38;;
77324;SDS011;66387;53.440;10.390;2023-02-12T15:21:55;6.90;;;3.83;;
77324;SDS011;66387;53.440;10.390;2023-02-12T15:24:21;4.90;;;3.40;;
77324;SDS011;66387;53.440;10.390;2023-02-12T15:29:19;4.70;;;4.22;;
77324;SDS011;66387;53.440;10.390;2023-02-12T15:31:51;4.75;;;3.85;;
77324;SDS011;66387;53.440;10.390;2023-02-12T15:34:19;5.63;;;3.90;;
77324;SDS011;66387;53.440;10.390;2023-02-12T15:36:47;7.60;;;3.92;;
77324;SDS011;66387;53.440;10.390;2023-02-12T15:39:16;5.97;;;4.30;;
77324;SDS011;66387;53.440;10.390;2023-02-12T15:41:45;7.45;;;4.82;;
77324;SDS011;66387;53.440;10.390;2023-02-12T15:44:18;5.22;;;4.15;;
77324;SDS011;66387;53.440;10.390;2023-02-12T15:47:01;8.50;;;5.13;;
77324;SDS011;66387;53.440;10.390;2023-02-12T15:49:38;6.75;;;4.95;;
77324;SDS011;66387;53.440;10.390;2023-02-12T15:54:35;7.70;;;5.80;;
77324;SDS011;66387;53.440;10.390;2023-02-12T15:57:08;18.25;;;11.05;;
77324;SDS011;66387;53.440;10.390;2023-02-12T15:59:35;160.15;;;62.78;;
77324;SDS011;66387;53.440;10.390;2023-02-12T16:02:00;56.38;;;23.63;;
77324;SDS011;66387;53.440;10.390;2023-02-12T16:04:30;33.47;;;17.27;;
77324;SDS011;66387;53.440;10.390;2023-02-12T16:07:01;8.30;;;6.63;;
77324;SDS011;66387;53.440;10.390;2023-02-12T16:09:30;15.13;;;11.20;;
77324;SDS011;66387;53.440;10.390;2023-02-12T16:11:59;10.43;;;8.07;;
77324;SDS011;66387;53.440;10.390;2023-02-12T16:14:40;9.45;;;7.68;;
77324;SDS011;66387;53.440;10.390;2023-02-12T16:19:55;8.63;;;6.55;;
77324;SDS011;66387;53.440;10.390;2023-02-12T16:22:22;5.45;;;4.80;;
77324;SDS011;66387;53.440;10.390;2023-02-12T16:24:51;12.10;;;10.73;;
77324;SDS011;66387;53.440;10.390;2023-02-12T16:27:22;8.82;;;6.38;;
77324;SDS011;66387;53.440;10.390;2023-02-12T16:29:51;8.02;;;5.97;;
77324;SDS011;66387;53.440;10.390;2023-02-12T16:34:57;8.63;;;7.22;;
77324;SDS011;66387;53.440;10.390;2023-02-12T16:37:39;12.65;;;7.13;;
77324;SDS011;66387;53.440;10.390;2023-02-12T16:42:36;22.52;;;14.60;;
77324;SDS011;66387;53.440;10.390;2023-02-12T16:45:24;22.60;;;16.00;;
77324;SDS011;66387;53.440;10.390;2023-02-12T16:47:58;14.10;;;10.13;;
77324;SDS011;66387;53.440;10.390;2023-02-12T16:50:28;10.20;;;8.73;;
77324;SDS011;66387;53.440;10.390;2023-02-12T16:53:05;14.18;;;11.05;;
77324;SDS011;66387;53.440;10.390;2023-02-12T16:55:32;13.32;;;9.63;;
77324;SDS011;66387;53.440;10.390;2023-02-12T16:57:58;12.43;;;9.77;;
77324;SDS011;66387;53.440;10.390;2023-02-12T17:00:24;11.43;;;8.20;;
77324;SDS011;66387;53.440;10.390;2023-02-12T17:02:50;15.00;;;11.02;;
77324;SDS011;66387;53.440;10.390;2023-02-12T17:05:19;14.80;;;11.23;;
77324;SDS011;66387;53.440;10.390;2023-02-12T17:07:45;13.40;;;9.90;;
77324;SDS011;66387;53.440;10.390;2023-02-12T17:10:13;12.85;;;8.48;;
77324;SDS011;66387;53.440;10.390;2023-02-12T17:12:46;13.13;;;7.90;;
77324;SDS011;66387;53.440;10.390;2023-02-12T17:15:15;13.00;;;8.15;;
77324;SDS011;66387;53.440;10.390;2023-02-12T17:17:45;13.20;;;8.18;;
77324;SDS011;66387;53.440;10.390;2023-02-12T17:20:11;13.07;;;8.97;;
77324;SDS011;66387;53.440;10.390;2023-02-12T17:22:36;15.13;;;8.98;;
77324;SDS011;66387;53.440;10.390;2023-02-12T17:25:02;13.02;;;9.48;;
77324;SDS011;66387;53.440;10.390;2023-02-12T17:27:27;14.80;;;8.57;;
77324;SDS011;66387;53.440;10.390;2023-02-12T17:29:52;29.30;;;14.93;;
77324;SDS011;66387;53.440;10.390;2023-02-12T17:32:18;22.60;;;13.07;;